Time;durP1;ratioP1;P1;durP2;ratioP2;P2;SDS_P1;SDS_P2;PMS_P1;PMS_P2;Temp;Humidity;BMP_temperature;BMP_pressure;BME280_temperature;BME280_humidity;BME280_pressure;Samples;Min_cycle;Max_cycle;Signal;HPM_P1;HPM_P2
2023/10/25 00:01:41;;;;;;;;;;;15.30;68.00;;;;;;4636189;30;115278;-83
2023/10/25 00:04:08;;;;;;;;;;;15.30;68.10;;;;;;4650695;30;114638;-83
2023/10/25 00:06:36;;;;;;;;;;;15.20;68.00;;;;;;4638138;30;114412;-83
2023/10/25 00:09:04;;;;;;;;;;;15.20;68.00;;;;;;4642637;30;115390;-81
2023/10/25 00:11:31;;;;;;;;;;;15.20;67.90;;;;;;4642062;30;114834;-82
2023/10/25 00:13:58;;;;;;;;;;;15.20;67.90;;;;;;4637409;30;114435;-82
2023/10/25 00:16:26;;;;;;;;;;;15.20;67.80;;;;;;4637487;30;114502;-83
2023/10/25 00:18:53;;;;;;;;;;;15.30;67.80;;;;;;4637034;30;115156;-81
2023/10/25 00:21:20;;;;;;;;;;;15.30;67.70;;;;;;4635652;30;114706;-82
2023/10/25 00:23:47;;;;;;;;;;;15.30;67.60;;;;;;4650934;30;114640;-83
2023/10/25 00:26:14;;;;;;;;;;;15.30;67.60;;;;;;4640815;30;114428;-83
2023/10/25 00:28:47;;;;;;;;;;;15.30;67.50;;;;;;4635242;30;117086;-82
2023/10/25 00:31:14;;;;;;;;;;;15.30;67.40;;;;;;4636742;30;115370;-82
2023/10/25 00:33:42;;;;;;;;;;;15.30;67.40;;;;;;4637335;30;114953;-83
2023/10/25 00:36:09;;;;;;;;;;;15.30;67.30;;;;;;4636039;30;114518;-82
2023/10/25 00:38:36;;;;;;;;;;;15.30;67.30;;;;;;4635947;30;114973;-83
2023/10/25 00:41:03;;;;;;;;;;;15.30;67.30;;;;;;4636652;30;115518;-83
2023/10/25 00:43:30;;;;;;;;;;;15.20;67.30;;;;;;4650146;30;114573;-82
2023/10/25 00:46:16;;;;;;;;;;;15.20;67.30;;;;;;4635861;30;114672;-82
2023/10/25 00:48:45;;;;;;;;;;;15.20;67.30;;;;;;4649151;30;115017;-82
2023/10/25 00:51:15;;;;;;;;;;;15.20;67.30;;;;;;4635031;30;114632;-83
2023/10/25 00:53:46;;;;;;;;;;;15.20;67.20;;;;;;4650183;30;114403;-83
2023/10/25 00:56:13;;;;;;;;;;;15.20;67.20;;;;;;4637480;30;114729;-82
2023/10/25 00:58:41;;;;;;;;;;;15.20;67.10;;;;;;4635093;30;115079;-82
2023/10/25 01:01:08;;;;;;;;;;;15.20;67.10;;;;;;4648996;30;114853;-82
2023/10/25 01:03:36;;;;;;;;;;;15.20;67.00;;;;;;4649470;30;114547;-82
2023/10/25 01:06:03;;;;;;;;;;;15.30;67.00;;;;;;4636730;30;114708;-82
2023/10/25 01:08:31;;;;;;;;;;;15.30;66.90;;;;;;4648821;30;115002;-82
2023/10/25 01:10:58;;;;;;;;;;;15.30;66.90;;;;;;4635981;30;114530;-83
2023/10/25 01:13:25;;;;;;;;;;;15.30;66.80;;;;;;4635461;30;114624;-82
2023/10/25 01:15:53;;;;;;;;;;;15.30;66.80;;;;;;4649960;30;114589;-82
2023/10/25 01:18:20;;;;;;;;;;;15.30;66.80;;;;;;4636001;30;114970;-84
2023/10/25 01:20:47;;;;;;;;;;;15.30;66.80;;;;;;4636089;30;114667;-83
2023/10/25 01:23:14;;;;;;;;;;;15.30;66.90;;;;;;4636301;30;114334;-83
2023/10/25 01:25:41;;;;;;;;;;;15.20;66.90;;;;;;4649593;30;114567;-82
2023/10/25 01:28:09;;;;;;;;;;;15.20;66.80;;;;;;4648194;30;115292;-83
2023/10/25 01:30:36;;;;;;;;;;;15.30;66.90;;;;;;4648135;30;115557;-83
2023/10/25 01:33:03;;;;;;;;;;;15.20;66.80;;;;;;4649334;30;114605;-84
2023/10/25 01:35:30;;;;;;;;;;;15.20;66.70;;;;;;4635316;30;114604;-83
2023/10/25 01:37:57;;;;;;;;;;;15.30;66.70;;;;;;4635595;30;114992;-83
2023/10/25 01:40:24;;;;;;;;;;;15.30;66.60;;;;;;4648329;30;115090;-82
2023/10/25 01:42:54;;;;;;;;;;;15.30;66.60;;;;;;4636243;30;114354;-82
2023/10/25 01:45:24;;;;;;;;;;;15.30;66.60;;;;;;4655705;30;114655;-82
2023/10/25 01:47:51;;;;;;;;;;;15.30;66.60;;;;;;4651870;30;114921;-82
2023/10/25 01:50:19;;;;;;;;;;;15.30;66.50;;;;;;4652156;30;114612;-83
2023/10/25 01:52:47;;;;;;;;;;;15.30;66.40;;;;;;4652906;30;114284;-82
2023/10/25 01:55:14;;;;;;;;;;;15.30;66.40;;;;;;4652255;30;114379;-83
2023/10/25 01:57:42;;;;;;;;;;;15.30;66.40;;;;;;4663429;30;115087;-82
2023/10/25 02:00:09;;;;;;;;;;;15.30;66.40;;;;;;4678008;29;114346;-83
2023/10/25 02:02:41;;;;;;;;;;;15.30;66.30;;;;;;4652306;30;114566;-84
2023/10/25 02:05:09;;;;;;;;;;;15.30;66.40;;;;;;4666383;30;114611;-82
2023/10/25 02:07:36;;;;;;;;;;;15.30;66.30;;;;;;4665632;30;115039;-82
2023/10/25 02:10:05;;;;;;;;;;;15.30;66.30;;;;;;4666404;30;115173;-82
2023/10/25 02:12:33;;;;;;;;;;;15.30;66.30;;;;;;4637933;30;114696;-81
2023/10/25 02:15:00;;;;;;;;;;;15.30;66.50;;;;;;4666301;30;114264;-82
2023/10/25 02:17:27;;;;;;;;;;;15.30;66.40;;;;;;4651529;30;115539;-82
2023/10/25 02:19:54;;;;;;;;;;;15.30;66.40;;;;;;4665587;30;114703;-83
2023/10/25 02:22:21;;;;;;;;;;;15.30;66.30;;;;;;4653016;30;114382;-82
2023/10/25 02:24:49;;;;;;;;;;;15.30;66.60;;;;;;4666192;30;114535;-83
2023/10/25 02:27:17;;;;;;;;;;;15.20;66.90;;;;;;4664882;30;115482;-82
2023/10/25 02:29:44;;;;;;;;;;;14.90;67.30;;;;;;4651689;30;114804;-82
2023/10/25 02:32:11;;;;;;;;;;;14.70;67.50;;;;;;4652563;30;114465;-81
2023/10/25 02:34:38;;;;;;;;;;;14.60;67.80;;;;;;4652889;30;114565;-82
2023/10/25 02:37:05;;;;;;;;;;;14.60;67.80;;;;;;4652028;30;116130;-82
2023/10/25 02:39:32;;;;;;;;;;;14.50;67.80;;;;;;4665216;30;114855;-81
2023/10/25 02:41:59;;;;;;;;;;;14.40;67.90;;;;;;4652055;30;115177;-81
2023/10/25 02:44:27;;;;;;;;;;;14.40;68.00;;;;;;4665831;30;114723;-82
2023/10/25 02:46:55;;;;;;;;;;;14.40;68.00;;;;;;4650416;30;115529;-81
2023/10/25 02:49:22;;;;;;;;;;;14.30;68.10;;;;;;4650577;30;114614;-82
2023/10/25 02:51:49;;;;;;;;;;;14.30;68.20;;;;;;4652446;30;114360;-82
2023/10/25 02:54:16;;;;;;;;;;;14.20;68.30;;;;;;4652804;30;114450;-82
2023/10/25 02:56:43;;;;;;;;;;;14.20;68.40;;;;;;4664859;30;115166;-83
2023/10/25 02:59:10;;;;;;;;;;;14.20;68.50;;;;;;4651024;30;114750;-83
2023/10/25 03:01:37;;;;;;;;;;;14.20;68.50;;;;;;4652244;30;114343;-82
2023/10/25 03:04:05;;;;;;;;;;;14.20;68.50;;;;;;4666091;30;114453;-82
2023/10/25 03:06:33;;;;;;;;;;;14.20;68.50;;;;;;4649922;30;117955;-82
2023/10/25 03:09:00;;;;;;;;;;;14.20;68.50;;;;;;4651471;30;114598;-81
2023/10/25 03:11:27;;;;;;;;;;;14.20;68.50;;;;;;4665408;30;114657;-81
2023/10/25 03:13:54;;;;;;;;;;;14.30;68.40;;;;;;4652363;30;114489;-82
2023/10/25 03:16:21;;;;;;;;;;;14.30;68.30;;;;;;4650238;30;115041;-82
2023/10/25 03:18:48;;;;;;;;;;;14.40;68.20;;;;;;4651001;30;116812;-81
2023/10/25 03:21:15;;;;;;;;;;;14.40;68.10;;;;;;4652259;30;114452;-81
2023/10/25 03:23:42;;;;;;;;;;;14.30;68.00;;;;;;4665869;30;114634;-82
2023/10/25 03:26:09;;;;;;;;;;;14.30;68.00;;;;;;4649701;30;117415;-82
2023/10/25 03:28:37;;;;;;;;;;;14.20;68.00;;;;;;4664167;30;114672;-82
2023/10/25 03:31:07;;;;;;;;;;;14.30;68.10;;;;;;4651816;30;114532;-82
2023/10/25 03:33:35;;;;;;;;;;;14.30;68.10;;;;;;4651798;30;114392;-83
2023/10/25 03:36:02;;;;;;;;;;;14.30;68.00;;;;;;4650954;30;115442;-81
2023/10/25 03:38:29;;;;;;;;;;;14.40;67.90;;;;;;4664183;30;114715;-80
2023/10/25 03:41:03;;;;;;;;;;;14.40;67.90;;;;;;4650455;30;114648;-80
2023/10/25 03:43:32;;;;;;;;;;;14.40;67.90;;;;;;4664821;30;114335;-82
2023/10/25 03:46:02;;;;;;;;;;;14.50;67.90;;;;;;4653795;30;115012;-81
2023/10/25 03:48:29;;;;;;;;;;;14.50;67.80;;;;;;4666636;30;114194;-81
2023/10/25 03:50:57;;;;;;;;;;;14.50;67.80;;;;;;4666385;30;114440;-81
2023/10/25 03:53:24;;;;;;;;;;;14.60;67.70;;;;;;4652399;30;114316;-83
2023/10/25 03:55:59;;;;;;;;;;;14.60;67.60;;;;;;4663224;30;114880;-83
2023/10/25 03:58:26;;;;;;;;;;;14.60;67.50;;;;;;4664832;30;114677;-82
2023/10/25 04:01:03;;;;;;;;;;;14.70;67.50;;;;;;4652040;30;114695;-83
2023/10/25 04:03:33;;;;;;;;;;;14.70;67.40;;;;;;4636648;30;114746;-83
2023/10/25 04:06:01;;;;;;;;;;;14.70;67.40;;;;;;4635601;30;118107;-83
2023/10/25 04:08:28;;;;;;;;;;;14.70;67.40;;;;;;4635274;30;116643;-83
2023/10/25 04:10:56;;;;;;;;;;;14.70;67.40;;;;;;4652762;30;114648;-83
2023/10/25 04:13:23;;;;;;;;;;;14.70;67.30;;;;;;4653879;30;115056;-83
2023/10/25 04:15:56;;;;;;;;;;;14.70;67.20;;;;;;4652629;30;115283;-83
2023/10/25 04:18:24;;;;;;;;;;;14.80;67.20;;;;;;4667021;30;114759;-83
2023/10/25 04:20:51;;;;;;;;;;;14.80;67.10;;;;;;4667170;30;114694;-82
2023/10/25 04:23:19;;;;;;;;;;;14.80;67.10;;;;;;4653338;30;114733;-83
2023/10/25 04:25:46;;;;;;;;;;;14.80;67.10;;;;;;4638417;30;118706;-83
2023/10/25 04:28:13;;;;;;;;;;;14.80;67.00;;;;;;4653631;30;114670;-83
2023/10/25 04:30:40;;;;;;;;;;;14.80;66.90;;;;;;4667362;30;114600;-82
2023/10/25 04:33:08;;;;;;;;;;;14.80;66.90;;;;;;4654575;30;114440;-83
2023/10/25 04:35:35;;;;;;;;;;;14.80;66.80;;;;;;4643657;30;114994;-82
2023/10/25 04:38:02;;;;;;;;;;;14.80;66.80;;;;;;4643537;30;115176;-83
2023/10/25 04:40:30;;;;;;;;;;;14.90;66.70;;;;;;4640939;30;114659;-82
2023/10/25 04:42:57;;;;;;;;;;;14.80;66.70;;;;;;4635122;30;114422;-82
2023/10/25 04:45:24;;;;;;;;;;;14.90;66.70;;;;;;4632770;30;117471;-81
2023/10/25 04:47:51;;;;;;;;;;;14.80;66.60;;;;;;4648859;30;114674;-82
2023/10/25 04:50:19;;;;;;;;;;;14.80;66.60;;;;;;4637401;30;114494;-82
2023/10/25 04:52:46;;;;;;;;;;;14.70;66.60;;;;;;4637351;30;114515;-82
2023/10/25 04:55:13;;;;;;;;;;;14.80;66.60;;;;;;4634804;30;115132;-81
2023/10/25 04:57:40;;;;;;;;;;;14.80;66.60;;;;;;4636032;30;114661;-81
2023/10/25 05:00:09;;;;;;;;;;;14.80;66.50;;;;;;4636685;30;114508;-82
2023/10/25 05:02:40;;;;;;;;;;;14.80;66.50;;;;;;4649788;30;114606;-82
2023/10/25 05:05:07;;;;;;;;;;;14.80;66.50;;;;;;4635807;30;115495;-82
2023/10/25 05:07:35;;;;;;;;;;;14.80;66.40;;;;;;4634591;30;115569;-82
2023/10/25 05:10:03;;;;;;;;;;;14.80;66.40;;;;;;4649150;30;114628;-82
2023/10/25 05:12:33;;;;;;;;;;;14.80;66.40;;;;;;4636346;30;114570;-82
2023/10/25 05:15:02;;;;;;;;;;;14.80;66.40;;;;;;4648557;30;114883;-82
2023/10/25 05:17:31;;;;;;;;;;;14.90;66.30;;;;;;4635771;30;115096;-81
2023/10/25 05:19:58;;;;;;;;;;;14.80;66.20;;;;;;4636631;30;114991;-81
2023/10/25 05:22:26;;;;;;;;;;;14.80;66.20;;;;;;4648627;30;114358;-83
2023/10/25 05:24:53;;;;;;;;;;;14.80;66.20;;;;;;4634533;30;116588;-82
2023/10/25 05:27:20;;;;;;;;;;;14.80;66.10;;;;;;4635851;30;115890;-82
2023/10/25 05:29:48;;;;;;;;;;;14.80;66.20;;;;;;4634909;30;114773;-83
2023/10/25 05:32:18;;;;;;;;;;;14.80;66.20;;;;;;4635622;30;114542;-82
2023/10/25 05:34:48;;;;;;;;;;;14.80;66.20;;;;;;4635212;30;114941;-82
2023/10/25 05:37:15;;;;;;;;;;;14.80;66.10;;;;;;4650513;30;115182;-81
2023/10/25 05:39:43;;;;;;;;;;;14.80;66.00;;;;;;4653423;30;114538;-82
2023/10/25 05:42:12;;;;;;;;;;;14.80;66.00;;;;;;4636394;30;114641;-83
2023/10/25 05:44:39;;;;;;;;;;;14.80;66.00;;;;;;4648957;30;115122;-84
2023/10/25 05:47:06;;;;;;;;;;;14.70;65.90;;;;;;4634660;30;114980;-83
2023/10/25 05:49:34;;;;;;;;;;;14.70;66.00;;;;;;4636165;30;114459;-83
2023/10/25 05:52:01;;;;;;;;;;;14.60;65.80;;;;;;4635748;30;114467;-80
2023/10/25 05:54:28;;;;;;;;;;;14.60;65.80;;;;;;4630860;30;115965;-82
2023/10/25 05:56:55;;;;;;;;;;;14.50;65.90;;;;;;4641039;30;115148;-82
2023/10/25 05:59:23;;;;;;;;;;;14.40;65.90;;;;;;4626805;30;114642;-82
2023/10/25 06:01:51;;;;;;;;;;;14.40;66.00;;;;;;4645699;30;115254;-83
2023/10/25 06:04:19;;;;;;;;;;;14.40;66.00;;;;;;4658547;30;118384;-82
2023/10/25 06:06:49;;;;;;;;;;;14.50;66.00;;;;;;4643448;30;114643;-82
2023/10/25 06:09:18;;;;;;;;;;;14.50;66.00;;;;;;4636156;30;114862;-81
2023/10/25 06:11:46;;;;;;;;;;;14.50;65.90;;;;;;4634894;30;114728;-83
2023/10/25 06:14:13;;;;;;;;;;;14.40;65.70;;;;;;4633562;30;115759;-82
2023/10/25 06:16:40;;;;;;;;;;;14.30;65.90;;;;;;4633232;30;115304;-81
2023/10/25 06:19:07;;;;;;;;;;;14.30;65.80;;;;;;4634430;30;114612;-81
2023/10/25 06:21:34;;;;;;;;;;;14.20;65.90;;;;;;4634630;30;114391;-83
2023/10/25 06:24:02;;;;;;;;;;;14.20;66.10;;;;;;4631922;30;115111;-83
2023/10/25 06:26:29;;;;;;;;;;;14.20;66.10;;;;;;4633853;30;115160;-82
2023/10/25 06:28:56;;;;;;;;;;;14.20;66.10;;;;;;4634637;30;114410;-81
2023/10/25 06:31:23;;;;;;;;;;;14.20;66.10;;;;;;4634922;30;115228;-83
2023/10/25 06:33:50;;;;;;;;;;;14.30;66.20;;;;;;4646918;30;117994;-83
2023/10/25 06:36:18;;;;;;;;;;;14.30;66.00;;;;;;4632554;30;115148;-83
2023/10/25 06:38:45;;;;;;;;;;;14.30;66.00;;;;;;4646832;30;114575;-82
2023/10/25 06:41:16;;;;;;;;;;;14.30;65.90;;;;;;4651279;30;114550;-82
2023/10/25 06:43:43;;;;;;;;;;;14.30;66.00;;;;;;4651434;30;115184;-83
2023/10/25 06:46:13;;;;;;;;;;;14.30;66.10;;;;;;4663515;30;116712;-82
2023/10/25 06:48:41;;;;;;;;;;;14.30;66.00;;;;;;4650950;30;114556;-83
2023/10/25 06:51:09;;;;;;;;;;;14.30;66.00;;;;;;4651798;30;115033;-83
2023/10/25 06:53:36;;;;;;;;;;;14.40;65.90;;;;;;4650709;30;115005;-81
2023/10/25 06:56:03;;;;;;;;;;;14.40;65.80;;;;;;4651054;30;114962;-82
2023/10/25 06:58:31;;;;;;;;;;;14.40;65.80;;;;;;4664716;30;114427;-83
2023/10/25 07:00:58;;;;;;;;;;;14.40;65.90;;;;;;4649126;30;115191;-82
2023/10/25 07:03:33;;;;;;;;;;;14.40;65.90;;;;;;4648775;30;115073;-83
2023/10/25 07:06:01;;;;;;;;;;;14.40;65.90;;;;;;4656693;30;114613;-83
2023/10/25 07:08:29;;;;;;;;;;;14.50;65.90;;;;;;4643226;30;114828;-83
2023/10/25 07:10:57;;;;;;;;;;;14.50;65.70;;;;;;4641362;30;114588;-83
2023/10/25 07:13:26;;;;;;;;;;;14.40;65.70;;;;;;4632796;30;115095;-83
2023/10/25 07:16:12;;;;;;;;;;;14.50;65.80;;;;;;4632407;30;114752;-84
2023/10/25 07:18:39;;;;;;;;;;;14.50;65.80;;;;;;4660322;30;114510;-84
2023/10/25 07:21:07;;;;;;;;;;;14.50;65.80;;;;;;4647581;30;114612;-82
2023/10/25 07:23:33;;;;;;;;;;;14.60;65.80;;;;;;4619845;30;117686;-84
2023/10/25 07:26:01;;;;;;;;;;;14.70;65.70;;;;;;4637023;30;115134;-84
2023/10/25 07:28:28;;;;;;;;;;;14.60;65.60;;;;;;4645750;30;115005;-83
2023/10/25 07:30:55;;;;;;;;;;;14.70;65.70;;;;;;4645357;30;114399;-84
2023/10/25 07:33:24;;;;;;;;;;;14.70;65.60;;;;;;4643978;30;114999;-84
2023/10/25 07:35:51;;;;;;;;;;;14.70;65.60;;;;;;4637562;30;114723;-82
2023/10/25 07:38:18;;;;;;;;;;;14.60;65.40;;;;;;4651722;30;114846;-84
2023/10/25 07:40:45;;;;;;;;;;;14.50;65.40;;;;;;4642386;30;114642;-82
2023/10/25 07:43:12;;;;;;;;;;;14.50;65.60;;;;;;4643317;30;115615;-82
2023/10/25 07:45:41;;;;;;;;;;;14.60;65.60;;;;;;4633664;30;114755;-82
2023/10/25 07:48:09;;;;;;;;;;;14.60;65.50;;;;;;4639172;30;114512;-82
2023/10/25 07:50:37;;;;;;;;;;;14.50;65.40;;;;;;4647223;30;114544;-83
2023/10/25 07:53:04;;;;;;;;;;;14.60;65.40;;;;;;4649305;30;115919;-84
2023/10/25 07:55:31;;;;;;;;;;;14.50;65.40;;;;;;4659315;30;114781;-81
2023/10/25 07:58:01;;;;;;;;;;;14.60;65.40;;;;;;4651151;30;115081;-82
2023/10/25 08:00:31;;;;;;;;;;;14.60;65.40;;;;;;4659459;30;115736;-82
2023/10/25 08:02:59;;;;;;;;;;;14.60;65.40;;;;;;4643599;30;114982;-83
2023/10/25 08:05:26;;;;;;;;;;;14.60;65.20;;;;;;4657085;30;116771;-82
2023/10/25 08:07:53;;;;;;;;;;;14.60;65.30;;;;;;4639855;30;114445;-82
2023/10/25 08:10:20;;;;;;;;;;;14.60;65.20;;;;;;4644137;30;114368;-83
2023/10/25 08:12:47;;;;;;;;;;;14.70;65.30;;;;;;4655659;30;115935;-83
2023/10/25 08:15:14;;;;;;;;;;;14.70;65.30;;;;;;4655074;30;114585;-83
2023/10/25 08:17:41;;;;;;;;;;;14.80;65.20;;;;;;4647253;30;114610;-83
2023/10/25 08:20:09;;;;;;;;;;;14.80;65.20;;;;;;4618722;30;114690;-83
2023/10/25 08:22:36;;;;;;;;;;;14.80;65.10;;;;;;4644834;30;114927;-83
2023/10/25 08:25:08;;;;;;;;;;;14.80;65.00;;;;;;4640420;30;114588;-82
2023/10/25 08:27:36;;;;;;;;;;;14.80;65.10;;;;;;4651898;30;115265;-83
2023/10/25 08:30:03;;;;;;;;;;;14.90;64.80;;;;;;4638742;30;114274;-81
2023/10/25 08:32:31;;;;;;;;;;;14.80;64.80;;;;;;4646075;30;114844;-83
2023/10/25 08:34:58;;;;;;;;;;;14.80;65.00;;;;;;4650423;30;114818;-82
2023/10/25 08:37:26;;;;;;;;;;;14.90;64.90;;;;;;4640331;30;114392;-82
2023/10/25 08:39:53;;;;;;;;;;;14.90;64.80;;;;;;4650169;30;114769;-82
2023/10/25 08:42:20;;;;;;;;;;;14.90;64.70;;;;;;4635653;30;115599;-83
2023/10/25 08:44:51;;;;;;;;;;;15.00;64.70;;;;;;4635268;30;114836;-82
2023/10/25 08:47:19;;;;;;;;;;;15.00;64.60;;;;;;4636732;30;114508;-83
2023/10/25 08:49:46;;;;;;;;;;;15.00;64.50;;;;;;4636824;30;114612;-81
2023/10/25 08:52:13;;;;;;;;;;;15.00;64.60;;;;;;4635636;30;115682;-82
2023/10/25 08:54:40;;;;;;;;;;;15.10;64.50;;;;;;4635132;30;115310;-83
2023/10/25 08:57:08;;;;;;;;;;;15.10;64.40;;;;;;4634648;30;114885;-83
2023/10/25 08:59:42;;;;;;;;;;;15.20;64.30;;;;;;4648945;30;114590;-84
2023/10/25 09:02:11;;;;;;;;;;;15.20;64.10;;;;;;4631388;30;116773;-83
2023/10/25 09:04:38;;;;;;;;;;;15.10;63.80;;;;;;4631478;30;116596;-81
2023/10/25 09:07:24;;;;;;;;;;;15.10;64.10;;;;;;4618441;30;114215;-82
2023/10/25 09:09:51;;;;;;;;;;;15.20;64.00;;;;;;4632936;30;115279;-82
2023/10/25 09:12:19;;;;;;;;;;;15.30;64.00;;;;;;4631694;30;114870;-83
2023/10/25 09:14:50;;;;;;;;;;;15.50;64.00;;;;;;4627616;30;116701;-82
2023/10/25 09:17:17;;;;;;;;;;;15.60;63.90;;;;;;4659119;30;114262;-82
2023/10/25 09:19:45;;;;;;;;;;;15.70;63.80;;;;;;4641049;30;114598;-83
2023/10/25 09:22:20;;;;;;;;;;;15.80;63.70;;;;;;4636185;30;114976;-82
2023/10/25 09:24:48;;;;;;;;;;;15.90;63.70;;;;;;4647623;30;114682;-82
2023/10/25 09:27:16;;;;;;;;;;;16.00;63.40;;;;;;4636667;30;114677;-82
2023/10/25 09:29:43;;;;;;;;;;;16.00;63.10;;;;;;4636442;30;114326;-81
2023/10/25 09:32:11;;;;;;;;;;;15.90;63.10;;;;;;4635726;30;115072;-81
2023/10/25 09:34:38;;;;;;;;;;;15.90;63.20;;;;;;4635979;30;114739;-81
2023/10/25 09:37:06;;;;;;;;;;;15.80;63.20;;;;;;4636362;30;114492;-81
2023/10/25 09:39:36;;;;;;;;;;;15.80;63.20;;;;;;4636530;30;114310;-83
2023/10/25 09:42:04;;;;;;;;;;;15.80;63.30;;;;;;4647338;30;114878;-82
2023/10/25 09:44:38;;;;;;;;;;;15.70;63.20;;;;;;4634468;30;114915;-83
2023/10/25 09:47:08;;;;;;;;;;;15.70;63.20;;;;;;4635124;30;114644;-82
2023/10/25 09:49:35;;;;;;;;;;;15.60;63.10;;;;;;4648851;30;114623;-84
2023/10/25 09:52:06;;;;;;;;;;;15.50;63.20;;;;;;4633929;30;115575;-80
2023/10/25 09:54:33;;;;;;;;;;;15.50;63.30;;;;;;4635467;30;115794;-84
2023/10/25 09:57:02;;;;;;;;;;;15.40;63.30;;;;;;4635579;30;114672;-82
2023/10/25 09:59:30;;;;;;;;;;;15.40;63.30;;;;;;4634899;30;114545;-83
2023/10/25 10:01:58;;;;;;;;;;;15.40;63.30;;;;;;4634868;30;116173;-82
2023/10/25 10:04:44;;;;;;;;;;;15.30;63.40;;;;;;4635030;30;114742;-83
2023/10/25 10:07:21;;;;;;;;;;;15.40;63.40;;;;;;4634933;30;114481;-82
2023/10/25 10:10:03;;;;;;;;;;;15.40;63.40;;;;;;4635532;30;114422;-82
2023/10/25 10:12:31;;;;;;;;;;;15.40;63.40;;;;;;4633640;30;114896;-82
2023/10/25 10:14:58;;;;;;;;;;;15.30;63.30;;;;;;4647890;30;114766;-83
2023/10/25 10:17:28;;;;;;;;;;;15.30;63.20;;;;;;4635690;30;114695;-82
2023/10/25 10:19:57;;;;;;;;;;;15.30;63.30;;;;;;4634864;30;114393;-83
2023/10/25 10:22:26;;;;;;;;;;;15.30;63.30;;;;;;4646962;30;116331;-83
2023/10/25 10:24:53;;;;;;;;;;;15.20;63.30;;;;;;4633646;30;118115;-81
2023/10/25 10:27:25;;;;;;;;;;;15.20;63.40;;;;;;4639266;30;114594;-83
2023/10/25 10:29:53;;;;;;;;;;;15.20;63.40;;;;;;4633800;30;114682;-82
2023/10/25 10:32:21;;;;;;;;;;;15.20;63.40;;;;;;4632645;30;115402;-83
2023/10/25 10:34:49;;;;;;;;;;;15.20;63.40;;;;;;4646800;30;116078;-82
2023/10/25 10:37:17;;;;;;;;;;;15.20;63.50;;;;;;4634362;30;114455;-81
2023/10/25 10:39:56;;;;;;;;;;;15.30;63.50;;;;;;4635094;30;114658;-81
2023/10/25 10:42:30;;;;;;;;;;;15.30;63.50;;;;;;4632973;30;118159;-83
2023/10/25 10:45:03;;;;;;;;;;;15.30;63.50;;;;;;4656793;30;115086;-82
2023/10/25 10:47:32;;;;;;;;;;;15.40;63.60;;;;;;4643816;30;114487;-83
2023/10/25 10:50:13;;;;;;;;;;;15.40;63.60;;;;;;4634946;30;114619;-83
2023/10/25 10:52:40;;;;;;;;;;;15.40;63.50;;;;;;4618606;30;116485;-82
2023/10/25 10:55:08;;;;;;;;;;;15.50;63.50;;;;;;4634024;30;117086;-82
2023/10/25 10:57:36;;;;;;;;;;;15.50;63.50;;;;;;4633842;30;114535;-82
2023/10/25 11:00:07;;;;;;;;;;;15.60;63.50;;;;;;4634533;30;114474;-81
2023/10/25 11:02:36;;;;;;;;;;;15.70;63.50;;;;;;4633032;30;116206;-82
2023/10/25 11:05:06;;;;;;;;;;;15.70;63.40;;;;;;4633655;30;115789;-82
2023/10/25 11:07:33;;;;;;;;;;;15.70;63.20;;;;;;4638054;30;114370;-82
2023/10/25 11:10:00;;;;;;;;;;;15.70;63.20;;;;;;4634828;30;114453;-83
2023/10/25 11:12:27;;;;;;;;;;;15.70;63.10;;;;;;4633377;30;114939;-82
2023/10/25 11:14:54;;;;;;;;;;;15.80;63.10;;;;;;4634726;30;114546;-82
2023/10/25 11:17:21;;;;;;;;;;;15.80;63.10;;;;;;4633828;30;114613;-82
2023/10/25 11:19:49;;;;;;;;;;;15.80;62.90;;;;;;4648457;30;114546;-81
2023/10/25 11:22:16;;;;;;;;;;;15.70;62.70;;;;;;4637197;30;114960;-83
2023/10/25 11:24:46;;;;;;;;;;;15.70;62.60;;;;;;4635916;30;117126;-82
2023/10/25 11:27:13;;;;;;;;;;;15.70;62.70;;;;;;4641334;30;114603;-82
2023/10/25 11:29:40;;;;;;;;;;;15.70;62.50;;;;;;4639336;30;114692;-81
2023/10/25 11:32:14;;;;;;;;;;;15.60;62.60;;;;;;4650495;30;115113;-82
2023/10/25 11:34:43;;;;;;;;;;;15.60;62.70;;;;;;4649235;30;114735;-81
2023/10/25 11:37:11;;;;;;;;;;;15.60;62.70;;;;;;4650319;30;114570;-82
2023/10/25 11:39:57;;;;;;;;;;;15.50;62.80;;;;;;4651150;30;114561;-83
2023/10/25 11:42:30;;;;;;;;;;;15.60;62.80;;;;;;4649430;30;115206;-82
2023/10/25 11:45:00;;;;;;;;;;;15.60;62.80;;;;;;4635184;30;117457;-82
2023/10/25 11:47:28;;;;;;;;;;;15.60;62.70;;;;;;4636724;30;115081;-82
2023/10/25 11:49:55;;;;;;;;;;;15.60;62.70;;;;;;4650828;30;114567;-82
2023/10/25 11:52:25;;;;;;;;;;;15.60;62.70;;;;;;4649526;30;115511;-82
2023/10/25 11:54:55;;;;;;;;;;;15.60;62.80;;;;;;4634590;30;114620;-82
2023/10/25 11:57:23;;;;;;;;;;;15.60;62.70;;;;;;4632091;30;115653;-83
2023/10/25 11:59:50;;;;;;;;;;;15.70;62.50;;;;;;4636960;30;114485;-82
2023/10/25 12:02:18;;;;;;;;;;;15.70;62.50;;;;;;4648212;30;115294;-82
2023/10/25 12:04:45;;;;;;;;;;;15.60;62.30;;;;;;4636748;30;114642;-81
2023/10/25 12:07:12;;;;;;;;;;;15.70;62.40;;;;;;4637504;30;114605;-82
2023/10/25 12:09:41;;;;;;;;;;;15.60;62.20;;;;;;4636959;30;114395;-83
2023/10/25 12:12:09;;;;;;;;;;;15.70;62.30;;;;;;4635509;30;116207;-83
2023/10/25 12:14:36;;;;;;;;;;;15.70;62.40;;;;;;4636024;30;114610;-82
2023/10/25 12:17:04;;;;;;;;;;;15.80;62.30;;;;;;4650507;30;114683;-83
2023/10/25 12:19:39;;;;;;;;;;;15.70;62.30;;;;;;4638121;30;114543;-84
2023/10/25 12:22:10;;;;;;;;;;;15.80;62.20;;;;;;4635109;30;117884;-82
2023/10/25 12:24:37;;;;;;;;;;;15.80;62.30;;;;;;4648360;30;115174;-82
2023/10/25 12:27:05;;;;;;;;;;;15.80;62.30;;;;;;4649718;30;114611;-82
2023/10/25 12:29:32;;;;;;;;;;;15.80;62.20;;;;;;4650738;30;114603;-84
2023/10/25 12:32:00;;;;;;;;;;;15.80;62.20;;;;;;4635908;30;115499;-83
2023/10/25 12:34:28;;;;;;;;;;;15.80;62.20;;;;;;4634810;30;118383;-83
2023/10/25 12:36:55;;;;;;;;;;;15.90;62.20;;;;;;4635309;30;114544;-83
2023/10/25 12:39:22;;;;;;;;;;;15.90;62.20;;;;;;4636720;30;114619;-82
2023/10/25 12:41:49;;;;;;;;;;;15.90;62.10;;;;;;4633857;30;115228;-82
2023/10/25 12:44:17;;;;;;;;;;;16.00;62.20;;;;;;4634853;30;115876;-83
2023/10/25 12:46:44;;;;;;;;;;;16.00;62.00;;;;;;4636937;30;114423;-82
2023/10/25 12:49:11;;;;;;;;;;;16.00;62.00;;;;;;4636543;30;114497;-81
2023/10/25 12:51:38;;;;;;;;;;;16.00;62.00;;;;;;4636678;30;116676;-82
2023/10/25 12:54:08;;;;;;;;;;;16.00;62.10;;;;;;4636501;30;115265;-83
2023/10/25 12:56:37;;;;;;;;;;;16.10;61.90;;;;;;4638076;30;114549;-82
2023/10/25 12:59:04;;;;;;;;;;;16.00;61.90;;;;;;4651558;30;114776;-82
2023/10/25 13:01:31;;;;;;;;;;;16.00;61.80;;;;;;4634004;30;116822;-82
2023/10/25 13:03:58;;;;;;;;;;;16.00;61.90;;;;;;4634439;30;117713;-80
2023/10/25 13:06:26;;;;;;;;;;;16.00;61.90;;;;;;4636555;30;114596;-81
2023/10/25 13:08:55;;;;;;;;;;;15.90;61.70;;;;;;4636955;30;114431;-82
2023/10/25 13:11:22;;;;;;;;;;;15.90;61.60;;;;;;4635355;30;116526;-82
2023/10/25 13:13:49;;;;;;;;;;;15.90;61.50;;;;;;4635865;30;114913;-82
2023/10/25 13:16:16;;;;;;;;;;;15.90;61.60;;;;;;4649151;30;114554;-82
2023/10/25 13:18:44;;;;;;;;;;;15.90;61.60;;;;;;4635015;30;114591;-82
2023/10/25 13:21:11;;;;;;;;;;;16.00;61.50;;;;;;4629489;30;115245;-82
2023/10/25 13:23:38;;;;;;;;;;;16.00;61.20;;;;;;4633341;30;115559;-83
2023/10/25 13:26:05;;;;;;;;;;;15.90;61.10;;;;;;4634629;30;114408;-81
2023/10/25 13:28:32;;;;;;;;;;;15.90;61.10;;;;;;4633053;30;114644;-81
2023/10/25 13:30:59;;;;;;;;;;;15.90;60.80;;;;;;4635201;30;114912;-82
2023/10/25 13:33:26;;;;;;;;;;;15.90;60.60;;;;;;4635711;30;115216;-82
2023/10/25 13:35:54;;;;;;;;;;;15.80;60.70;;;;;;4636810;30;114470;-83
2023/10/25 13:38:23;;;;;;;;;;;15.90;60.60;;;;;;4634995;30;115313;-83
2023/10/25 13:40:50;;;;;;;;;;;15.90;60.30;;;;;;4635666;30;114939;-82
2023/10/25 13:43:17;;;;;;;;;;;15.80;60.00;;;;;;4635243;30;114637;-81
2023/10/25 13:45:45;;;;;;;;;;;15.80;60.10;;;;;;4635984;30;114476;-82
2023/10/25 13:48:12;;;;;;;;;;;15.80;60.00;;;;;;4649582;30;114697;-83
2023/10/25 13:50:39;;;;;;;;;;;15.80;60.00;;;;;;4634768;30;115499;-83
2023/10/25 13:53:09;;;;;;;;;;;15.80;59.90;;;;;;4635517;30;114781;-82
2023/10/25 13:55:40;;;;;;;;;;;15.80;59.90;;;;;;4634509;30;114714;-83
2023/10/25 13:58:10;;;;;;;;;;;15.80;60.00;;;;;;4635859;30;114667;-81
2023/10/25 14:00:41;;;;;;;;;;;15.80;59.70;;;;;;4632937;30;115025;-83
2023/10/25 14:03:11;;;;;;;;;;;15.80;59.90;;;;;;4634889;30;114647;-82
2023/10/25 14:05:45;;;;;;;;;;;15.80;59.70;;;;;;4634969;30;114788;-82
2023/10/25 14:08:19;;;;;;;;;;;15.80;59.60;;;;;;4622065;30;114610;-82
2023/10/25 14:10:49;;;;;;;;;;;15.80;59.60;;;;;;4616706;30;115190;-83